sensor_id;sensor_type;location;lat;lon;timestamp;pressure;altitude;pressure_sealevel;temperature;humidity
36242;BME280;22283;42.748;12.732;2023-02-21T00:04:27;98936.53;;;6.70;100.00
36242;BME280;22283;42.748;12.732;2023-02-21T00:09:46;98943.34;;;6.74;100.00
36242;BME280;22283;42.748;12.732;2023-02-21T00:15:05;98931.09;;;6.54;100.00
36242;BME280;22283;42.748;12.732;2023-02-21T00:20:24;98919.66;;;6.34;100.00
36242;BME280;22283;42.748;12.732;2023-02-21T00:25:44;98919.88;;;6.30;100.00
36242;BME280;22283;42.748;12.732;2023-02-21T00:31:03;98913.38;;;6.18;100.00
36242;BME280;22283;42.748;12.732;2023-02-21T00:36:24;98908.03;;;6.20;100.00
36242;BME280;22283;42.748;12.732;2023-02-21T00:41:43;98910.13;;;6.11;100.00
36242;BME280;22283;42.748;12.732;2023-02-21T00:47:03;98902.16;;;5.93;100.00
36242;BME280;22283;42.748;12.732;2023-02-21T00:52:22;98908.31;;;5.91;100.00
36242;BME280;22283;42.748;12.732;2023-02-21T00:57:41;98900.63;;;5.87;100.00
36242;BME280;22283;42.748;12.732;2023-02-21T01:03:00;98898.44;;;5.76;100.00
36242;BME280;22283;42.748;12.732;2023-02-21T01:08:20;98894.38;;;5.89;100.00
36242;BME280;22283;42.748;12.732;2023-02-21T01:13:39;98894.91;;;5.77;100.00
36242;BME280;22283;42.748;12.732;2023-02-21T01:18:58;98884.72;;;5.70;100.00
36242;BME280;22283;42.748;12.732;2023-02-21T01:24:17;98889.22;;;5.66;100.00
36242;BME280;22283;42.748;12.732;2023-02-21T01:29:38;98888.66;;;5.59;100.00
36242;BME280;22283;42.748;12.732;2023-02-21T01:34:58;98884.75;;;5.48;100.00
36242;BME280;22283;42.748;12.732;2023-02-21T01:40:18;98878.41;;;5.31;100.00
36242;BME280;22283;42.748;12.732;2023-02-21T01:45:45;98867.78;;;5.12;100.00
36242;BME280;22283;42.748;12.732;2023-02-21T01:51:07;98879.50;;;5.04;100.00
36242;BME280;22283;42.748;12.732;2023-02-21T01:56:29;98877.91;;;5.00;100.00
36242;BME280;22283;42.748;12.732;2023-02-21T02:01:59;98876.78;;;4.83;100.00
36242;BME280;22283;42.748;12.732;2023-02-21T02:07:20;98873.47;;;4.78;100.00
36242;BME280;22283;42.748;12.732;2023-02-21T02:17:51;98857.44;;;4.86;100.00
36242;BME280;22283;42.748;12.732;2023-02-21T02:39:23;98846.44;;;5.00;100.00
36242;BME280;22283;42.748;12.732;2023-02-21T02:44:57;98850.88;;;4.98;100.00
36242;BME280;22283;42.748;12.732;2023-02-21T02:50:00;98842.22;;;4.96;100.00
36242;BME280;22283;42.748;12.732;2023-02-21T02:55:18;98840.63;;;4.91;100.00
36242;BME280;22283;42.748;12.732;2023-02-21T03:00:21;98844.16;;;4.67;100.00
36242;BME280;22283;42.748;12.732;2023-02-21T03:06:04;98843.78;;;4.54;100.00
36242;BME280;22283;42.748;12.732;2023-02-21T03:11:14;98847.41;;;4.52;100.00
36242;BME280;22283;42.748;12.732;2023-02-21T03:16:24;98844.53;;;4.58;100.00
36242;BME280;22283;42.748;12.732;2023-02-21T03:21:38;98837.00;;;4.72;100.00
36242;BME280;22283;42.748;12.732;2023-02-21T03:26:45;98832.91;;;4.87;100.00
36242;BME280;22283;42.748;12.732;2023-02-21T03:32:29;98834.97;;;5.24;100.00
36242;BME280;22283;42.748;12.732;2023-02-21T03:37:40;98829.25;;;5.77;100.00
36242;BME280;22283;42.748;12.732;2023-02-21T03:42:42;98839.38;;;5.86;100.00
36242;BME280;22283;42.748;12.732;2023-02-21T03:47:43;98835.84;;;6.08;100.00
36242;BME280;22283;42.748;12.732;2023-02-21T03:52:44;98841.91;;;6.10;100.00
36242;BME280;22283;42.748;12.732;2023-02-21T03:57:46;98837.81;;;6.23;100.00
36242;BME280;22283;42.748;12.732;2023-02-21T04:02:47;98840.41;;;6.44;100.00
36242;BME280;22283;42.748;12.732;2023-02-21T04:07:58;98841.13;;;6.85;100.00
36242;BME280;22283;42.748;12.732;2023-02-21T04:12:58;98835.44;;;7.13;100.00
36242;BME280;22283;42.748;12.732;2023-02-21T04:18:00;98839.66;;;7.34;100.00
36242;BME280;22283;42.748;12.732;2023-02-21T04:23:00;98836.72;;;7.41;100.00
36242;BME280;22283;42.748;12.732;2023-02-21T04:28:01;98838.06;;;7.49;100.00
36242;BME280;22283;42.748;12.732;2023-02-21T04:33:03;98833.34;;;7.73;100.00
36242;BME280;22283;42.748;12.732;2023-02-21T04:38:04;98833.00;;;7.79;100.00
36242;BME280;22283;42.748;12.732;2023-02-21T04:43:05;98818.47;;;7.72;100.00
36242;BME280;22283;42.748;12.732;2023-02-21T04:48:06;98824.66;;;7.88;100.00
36242;BME280;22283;42.748;12.732;2023-02-21T04:53:07;98823.50;;;7.94;100.00
36242;BME280;22283;42.748;12.732;2023-02-21T04:58:08;98810.25;;;7.78;100.00
36242;BME280;22283;42.748;12.732;2023-02-21T05:03:08;98820.16;;;7.91;100.00
36242;BME280;22283;42.748;12.732;2023-02-21T05:08:09;98816.59;;;7.92;100.00
36242;BME280;22283;42.748;12.732;2023-02-21T05:13:11;98810.22;;;7.96;100.00
36242;BME280;22283;42.748;12.732;2023-02-21T05:18:12;98817.47;;;7.92;100.00
36242;BME280;22283;42.748;12.732;2023-02-21T05:23:13;98816.59;;;7.92;100.00
36242;BME280;22283;42.748;12.732;2023-02-21T05:28:16;98807.13;;;7.87;100.00
36242;BME280;22283;42.748;12.732;2023-02-21T05:33:16;98805.69;;;7.82;100.00
36242;BME280;22283;42.748;12.732;2023-02-21T05:38:19;98809.16;;;7.82;100.00
36242;BME280;22283;42.748;12.732;2023-02-21T05:43:20;98803.13;;;7.80;100.00
36242;BME280;22283;42.748;12.732;2023-02-21T05:48:22;98800.50;;;7.80;100.00
36242;BME280;22283;42.748;12.732;2023-02-21T05:53:23;98804.59;;;7.86;100.00
36242;BME280;22283;42.748;12.732;2023-02-21T05:58:23;98810.56;;;7.89;100.00
36242;BME280;22283;42.748;12.732;2023-02-21T06:03:24;98811.94;;;7.79;100.00
36242;BME280;22283;42.748;12.732;2023-02-21T06:08:25;98804.06;;;7.62;100.00
36242;BME280;22283;42.748;12.732;2023-02-21T06:13:25;98811.72;;;7.49;100.00
36242;BME280;22283;42.748;12.732;2023-02-21T06:18:26;98812.81;;;7.45;100.00
36242;BME280;22283;42.748;12.732;2023-02-21T06:23:26;98814.59;;;7.45;100.00
36242;BME280;22283;42.748;12.732;2023-02-21T06:28:30;98813.03;;;7.41;100.00
36242;BME280;22283;42.748;12.732;2023-02-21T06:33:31;98813.50;;;7.49;100.00
36242;BME280;22283;42.748;12.732;2023-02-21T06:38:32;98813.97;;;7.57;100.00
36242;BME280;22283;42.748;12.732;2023-02-21T06:43:33;98818.22;;;7.59;100.00
36242;BME280;22283;42.748;12.732;2023-02-21T06:48:35;98811.47;;;7.71;100.00
36242;BME280;22283;42.748;12.732;2023-02-21T06:53:37;98816.31;;;7.80;100.00
36242;BME280;22283;42.748;12.732;2023-02-21T06:58:37;98807.91;;;7.89;100.00
36242;BME280;22283;42.748;12.732;2023-02-21T07:03:39;98812.56;;;8.02;100.00
36242;BME280;22283;42.748;12.732;2023-02-21T07:08:42;98818.72;;;8.18;100.00
36242;BME280;22283;42.748;12.732;2023-02-21T07:13:50;98815.56;;;8.11;100.00
36242;BME280;22283;42.748;12.732;2023-02-21T07:18:50;98817.72;;;8.03;100.00
36242;BME280;22283;42.748;12.732;2023-02-21T07:23:51;98821.06;;;8.07;100.00
36242;BME280;22283;42.748;12.732;2023-02-21T07:28:52;98817.78;;;8.19;100.00
36242;BME280;22283;42.748;12.732;2023-02-21T07:33:53;98810.31;;;8.27;100.00
36242;BME280;22283;42.748;12.732;2023-02-21T07:38:53;98813.50;;;8.34;100.00
36242;BME280;22283;42.748;12.732;2023-02-21T07:43:54;98808.28;;;8.50;100.00
36242;BME280;22283;42.748;12.732;2023-02-21T07:48:55;98813.53;;;8.67;100.00
36242;BME280;22283;42.748;12.732;2023-02-21T07:53:56;98804.75;;;8.82;100.00
36242;BME280;22283;42.748;12.732;2023-02-21T07:58:57;98804.31;;;9.06;100.00
36242;BME280;22283;42.748;12.732;2023-02-21T08:03:57;98800.75;;;9.23;100.00
36242;BME280;22283;42.748;12.732;2023-02-21T08:08:58;98795.00;;;9.30;100.00
36242;BME280;22283;42.748;12.732;2023-02-21T08:13:58;98795.44;;;9.39;100.00
36242;BME280;22283;42.748;12.732;2023-02-21T08:18:59;98799.59;;;9.43;100.00
36242;BME280;22283;42.748;12.732;2023-02-21T08:24:00;98793.88;;;9.50;100.00
36242;BME280;22283;42.748;12.732;2023-02-21T08:29:01;98800.03;;;9.65;100.00
36242;BME280;22283;42.748;12.732;2023-02-21T08:34:03;98802.50;;;9.68;100.00
36242;BME280;22283;42.748;12.732;2023-02-21T08:39:05;98801.59;;;9.83;100.00
36242;BME280;22283;42.748;12.732;2023-02-21T08:44:06;98806.72;;;10.01;100.00
36242;BME280;22283;42.748;12.732;2023-02-21T08:49:08;98801.19;;;10.20;100.00
36242;BME280;22283;42.748;12.732;2023-02-21T08:54:09;98803.00;;;10.48;100.00
36242;BME280;22283;42.748;12.732;2023-02-21T08:59:10;98801.69;;;10.69;100.00
36242;BME280;22283;42.748;12.732;2023-02-21T09:04:10;98798.41;;;10.93;100.00
36242;BME280;22283;42.748;12.732;2023-02-21T09:09:11;98797.03;;;11.14;99.84
36242;BME280;22283;42.748;12.732;2023-02-21T09:14:12;98795.78;;;11.20;97.16
36242;BME280;22283;42.748;12.732;2023-02-21T09:19:13;98795.28;;;11.27;98.07
36242;BME280;22283;42.748;12.732;2023-02-21T09:24:14;98790.56;;;11.32;95.41
36242;BME280;22283;42.748;12.732;2023-02-21T09:29:15;98801.06;;;11.20;97.17
36242;BME280;22283;42.748;12.732;2023-02-21T09:34:15;98800.47;;;11.02;97.22
36242;BME280;22283;42.748;12.732;2023-02-21T09:39:17;98808.78;;;11.10;97.82
36242;BME280;22283;42.748;12.732;2023-02-21T09:44:21;98800.03;;;11.22;96.70
36242;BME280;22283;42.748;12.732;2023-02-21T09:49:42;98790.81;;;11.55;94.23
36242;BME280;22283;42.748;12.732;2023-02-21T09:54:46;98797.06;;;11.94;92.27
36242;BME280;22283;42.748;12.732;2023-02-21T09:59:51;98796.22;;;12.06;89.54
36242;BME280;22283;42.748;12.732;2023-02-21T10:10:50;98790.16;;;12.55;85.72
36242;BME280;22283;42.748;12.732;2023-02-21T10:16:23;98783.06;;;12.55;84.08
36242;BME280;22283;42.748;12.732;2023-02-21T10:21:07;98784.59;;;12.71;84.07
36242;BME280;22283;42.748;12.732;2023-02-21T10:26:13;98782.00;;;12.95;82.84
36242;BME280;22283;42.748;12.732;2023-02-21T10:31:37;98774.19;;;12.80;82.62
36242;BME280;22283;42.748;12.732;2023-02-21T10:36:38;98780.47;;;12.79;81.17
36242;BME280;22283;42.748;12.732;2023-02-21T10:41:40;98777.22;;;12.63;81.46
36242;BME280;22283;42.748;12.732;2023-02-21T10:47:25;98773.28;;;12.56;81.41
36242;BME280;22283;42.748;12.732;2023-02-21T10:52:14;98770.13;;;12.38;78.13
36242;BME280;22283;42.748;12.732;2023-02-21T10:57:20;98771.41;;;12.33;80.93
36242;BME280;22283;42.748;12.732;2023-02-21T11:02:28;98745.91;;;12.43;78.27
36242;BME280;22283;42.748;12.732;2023-02-21T11:07:30;98743.50;;;12.76;77.08
36242;BME280;22283;42.748;12.732;2023-02-21T11:12:30;98735.44;;;13.02;73.59
36242;BME280;22283;42.748;12.732;2023-02-21T11:17:31;98733.59;;;13.39;72.33
36242;BME280;22283;42.748;12.732;2023-02-21T11:22:42;98723.00;;;13.62;68.26
36242;BME280;22283;42.748;12.732;2023-02-21T11:27:43;98718.81;;;13.70;67.03
36242;BME280;22283;42.748;12.732;2023-02-21T11:32:51;98711.53;;;13.61;65.79
36242;BME280;22283;42.748;12.732;2023-02-21T11:37:58;98700.72;;;13.87;65.81
36242;BME280;22283;42.748;12.732;2023-02-21T11:43:52;98680.28;;;14.21;63.56
36242;BME280;22283;42.748;12.732;2023-02-21T11:54:14;98658.13;;;14.43;61.43
36242;BME280;22283;42.748;12.732;2023-02-21T11:59:49;98646.69;;;14.86;60.40
36242;BME280;22283;42.748;12.732;2023-02-21T12:11:04;98634.56;;;14.93;59.91
36242;BME280;22283;42.748;12.732;2023-02-21T12:26:57;98621.78;;;15.29;58.71
36242;BME280;22283;42.748;12.732;2023-02-21T12:38:04;98603.06;;;14.87;58.75
36242;BME280;22283;42.748;12.732;2023-02-21T12:48:44;98582.00;;;14.84;58.04
36242;BME280;22283;42.748;12.732;2023-02-21T12:53:54;98581.28;;;14.93;56.87
36242;BME280;22283;42.748;12.732;2023-02-21T13:09:49;98566.63;;;14.87;56.81
36242;BME280;22283;42.748;12.732;2023-02-21T13:15:30;98560.72;;;14.84;56.87
36242;BME280;22283;42.748;12.732;2023-02-21T13:20:29;98548.16;;;14.95;56.81
36242;BME280;22283;42.748;12.732;2023-02-21T13:25:59;98557.78;;;14.66;56.52
36242;BME280;22283;42.748;12.732;2023-02-21T13:31:05;98550.66;;;14.44;57.77
36242;BME280;22283;42.748;12.732;2023-02-21T13:41:38;98544.13;;;14.48;57.40
36242;BME280;22283;42.748;12.732;2023-02-21T13:51:48;98541.38;;;13.95;59.12
36242;BME280;22283;42.748;12.732;2023-02-21T13:56:50;98531.09;;;13.79;59.46
36242;BME280;22283;42.748;12.732;2023-02-21T14:02:14;98524.22;;;13.76;58.40
36242;BME280;22283;42.748;12.732;2023-02-21T14:07:15;98523.50;;;13.74;59.80
36242;BME280;22283;42.748;12.732;2023-02-21T14:12:17;98513.22;;;13.70;58.70
36242;BME280;22283;42.748;12.732;2023-02-21T14:17:27;98508.78;;;13.59;59.44
36242;BME280;22283;42.748;12.732;2023-02-21T14:22:29;98505.38;;;13.57;59.01
36242;BME280;22283;42.748;12.732;2023-02-21T14:27:33;98499.56;;;13.63;59.09
36242;BME280;22283;42.748;12.732;2023-02-21T14:32:43;98507.69;;;13.39;59.48
36242;BME280;22283;42.748;12.732;2023-02-21T14:38:05;98498.13;;;13.48;59.80
36242;BME280;22283;42.748;12.732;2023-02-21T14:48:37;98491.59;;;13.29;61.05
36242;BME280;22283;42.748;12.732;2023-02-21T15:04:11;98477.25;;;12.74;63.20
36242;BME280;22283;42.748;12.732;2023-02-21T15:09:18;98483.13;;;12.67;62.92
36242;BME280;22283;42.748;12.732;2023-02-21T15:14:23;98471.19;;;12.61;63.37
36242;BME280;22283;42.748;12.732;2023-02-21T15:24:28;98473.53;;;12.42;64.05
36242;BME280;22283;42.748;12.732;2023-02-21T15:29:28;98469.84;;;12.20;64.44
36242;BME280;22283;42.748;12.732;2023-02-21T15:34:36;98474.97;;;12.11;64.69
36242;BME280;22283;42.748;12.732;2023-02-21T15:39:39;98471.19;;;12.02;65.33
36242;BME280;22283;42.748;12.732;2023-02-21T16:00:39;98466.06;;;11.88;66.05
36242;BME280;22283;42.748;12.732;2023-02-21T16:05:40;98471.91;;;11.80;66.67
36242;BME280;22283;42.748;12.732;2023-02-21T16:10:41;98466.19;;;11.73;67.52
36242;BME280;22283;42.748;12.732;2023-02-21T16:15:42;98472.38;;;11.61;68.90
36242;BME280;22283;42.748;12.732;2023-02-21T16:20:44;98479.19;;;11.52;69.38
36242;BME280;22283;42.748;12.732;2023-02-21T16:31:24;98477.63;;;11.37;70.97
36242;BME280;22283;42.748;12.732;2023-02-21T16:36:28;98476.25;;;11.31;71.35
36242;BME280;22283;42.748;12.732;2023-02-21T16:41:29;98476.91;;;11.22;71.95
36242;BME280;22283;42.748;12.732;2023-02-21T16:46:29;98479.97;;;11.16;72.00
36242;BME280;22283;42.748;12.732;2023-02-21T16:51:30;98484.66;;;11.13;72.51
36242;BME280;22283;42.748;12.732;2023-02-21T16:56:35;98484.09;;;11.07;72.58
36242;BME280;22283;42.748;12.732;2023-02-21T17:01:39;98483.47;;;11.04;72.46
36242;BME280;22283;42.748;12.732;2023-02-21T17:06:40;98487.28;;;11.00;72.92
36242;BME280;22283;42.748;12.732;2023-02-21T17:11:41;98485.16;;;10.92;73.25
36242;BME280;22283;42.748;12.732;2023-02-21T17:16:42;98491.31;;;10.93;75.72
36242;BME280;22283;42.748;12.732;2023-02-21T17:21:47;98488.13;;;10.88;76.69
36242;BME280;22283;42.748;12.732;2023-02-21T17:26:47;98493.63;;;10.84;80.64
36242;BME280;22283;42.748;12.732;2023-02-21T17:31:55;98482.13;;;10.86;80.67
36242;BME280;22283;42.748;12.732;2023-02-21T17:36:55;98487.94;;;10.91;80.66
36242;BME280;22283;42.748;12.732;2023-02-21T17:41:56;98482.84;;;10.88;80.11
36242;BME280;22283;42.748;12.732;2023-02-21T17:46:56;98487.09;;;10.77;82.66
36242;BME280;22283;42.748;12.732;2023-02-21T17:51:57;98486.22;;;10.64;83.39
36242;BME280;22283;42.748;12.732;2023-02-21T17:56:58;98485.16;;;10.54;84.21
36242;BME280;22283;42.748;12.732;2023-02-21T18:01:59;98482.59;;;10.52;84.47
36242;BME280;22283;42.748;12.732;2023-02-21T18:06:59;98498.88;;;10.46;85.70
36242;BME280;22283;42.748;12.732;2023-02-21T18:12:00;98497.72;;;10.38;86.60
36242;BME280;22283;42.748;12.732;2023-02-21T18:17:00;98495.47;;;10.31;86.22
36242;BME280;22283;42.748;12.732;2023-02-21T18:22:02;98490.38;;;10.28;86.00
36242;BME280;22283;42.748;12.732;2023-02-21T18:27:06;98494.91;;;10.26;86.35
36242;BME280;22283;42.748;12.732;2023-02-21T18:32:06;98495.84;;;10.25;86.34
36242;BME280;22283;42.748;12.732;2023-02-21T18:37:07;98492.38;;;10.25;86.76
36242;BME280;22283;42.748;12.732;2023-02-21T18:42:07;98494.25;;;10.23;86.67
36242;BME280;22283;42.748;12.732;2023-02-21T18:47:08;98495.41;;;10.19;87.20
36242;BME280;22283;42.748;12.732;2023-02-21T18:52:11;98493.06;;;10.14;87.55
36242;BME280;22283;42.748;12.732;2023-02-21T18:57:12;98500.22;;;10.12;87.72
36242;BME280;22283;42.748;12.732;2023-02-21T19:02:15;98489.84;;;10.09;88.17
36242;BME280;22283;42.748;12.732;2023-02-21T19:07:16;98498.53;;;10.11;88.46
36242;BME280;22283;42.748;12.732;2023-02-21T19:12:17;98498.84;;;10.06;89.59
36242;BME280;22283;42.748;12.732;2023-02-21T19:17:17;98496.69;;;9.99;90.64
36242;BME280;22283;42.748;12.732;2023-02-21T19:22:18;98495.50;;;9.90;91.49
36242;BME280;22283;42.748;12.732;2023-02-21T19:27:19;98496.66;;;9.86;92.04
36242;BME280;22283;42.748;12.732;2023-02-21T19:32:20;98497.28;;;9.90;91.70
36242;BME280;22283;42.748;12.732;2023-02-21T19:37:21;98499.28;;;9.86;92.11
36242;BME280;22283;42.748;12.732;2023-02-21T19:42:23;98504.09;;;9.79;93.30
36242;BME280;22283;42.748;12.732;2023-02-21T19:47:28;98513.19;;;9.75;93.90
36242;BME280;22283;42.748;12.732;2023-02-21T19:52:29;98502.16;;;9.69;94.20
36242;BME280;22283;42.748;12.732;2023-02-21T19:57:33;98508.69;;;9.63;94.77
36242;BME280;22283;42.748;12.732;2023-02-21T20:02:34;98514.16;;;9.60;94.93
36242;BME280;22283;42.748;12.732;2023-02-21T20:07:35;98514.81;;;9.64;95.11
36242;BME280;22283;42.748;12.732;2023-02-21T20:12:41;98505.94;;;9.65;94.64
36242;BME280;22283;42.748;12.732;2023-02-21T20:17:41;98513.50;;;9.56;95.45
36242;BME280;22283;42.748;12.732;2023-02-21T20:22:43;98510.19;;;9.53;96.22
36242;BME280;22283;42.748;12.732;2023-02-21T20:27:46;98520.03;;;9.51;96.43
36242;BME280;22283;42.748;12.732;2023-02-21T20:32:47;98509.72;;;9.46;96.75
36242;BME280;22283;42.748;12.732;2023-02-21T20:37:48;98512.56;;;9.43;96.60
36242;BME280;22283;42.748;12.732;2023-02-21T20:42:50;98514.50;;;9.54;95.67
36242;BME280;22283;42.748;12.732;2023-02-21T20:47:50;98511.13;;;9.52;95.37
36242;BME280;22283;42.748;12.732;2023-02-21T20:52:51;98509.63;;;9.48;95.78
36242;BME280;22283;42.748;12.732;2023-02-21T20:57:52;98506.53;;;9.41;96.33
36242;BME280;22283;42.748;12.732;2023-02-21T21:02:53;98504.94;;;9.39;96.59
36242;BME280;22283;42.748;12.732;2023-02-21T21:07:53;98500.88;;;9.33;96.90
36242;BME280;22283;42.748;12.732;2023-02-21T21:12:55;98495.69;;;9.31;97.34
36242;BME280;22283;42.748;12.732;2023-02-21T21:17:56;98493.78;;;9.33;96.65
36242;BME280;22283;42.748;12.732;2023-02-21T21:22:57;98492.38;;;9.42;96.08
36242;BME280;22283;42.748;12.732;2023-02-21T21:27:57;98483.81;;;9.39;95.28
36242;BME280;22283;42.748;12.732;2023-02-21T21:32:58;98485.03;;;9.33;96.76
36242;BME280;22283;42.748;12.732;2023-02-21T21:37:59;98480.88;;;9.29;97.38
36242;BME280;22283;42.748;12.732;2023-02-21T21:43:02;98469.84;;;9.22;96.28
36242;BME280;22283;42.748;12.732;2023-02-21T21:48:06;98470.22;;;9.30;96.06
36242;BME280;22283;42.748;12.732;2023-02-21T21:53:07;98476.63;;;9.26;96.36
36242;BME280;22283;42.748;12.732;2023-02-21T21:58:09;98471.84;;;9.19;97.39
36242;BME280;22283;42.748;12.732;2023-02-21T22:03:11;98467.78;;;9.13;97.92
36242;BME280;22283;42.748;12.732;2023-02-21T22:08:14;98474.09;;;9.10;97.52
36242;BME280;22283;42.748;12.732;2023-02-21T22:13:15;98477.50;;;9.13;97.65
36242;BME280;22283;42.748;12.732;2023-02-21T22:18:20;98468.81;;;9.10;97.84
36242;BME280;22283;42.748;12.732;2023-02-21T22:23:21;98466.47;;;9.06;98.69
36242;BME280;22283;42.748;12.732;2023-02-21T22:28:23;98466.47;;;9.06;99.05
36242;BME280;22283;42.748;12.732;2023-02-21T22:33:24;98468.19;;;9.07;98.67
36242;BME280;22283;42.748;12.732;2023-02-21T22:38:25;98461.66;;;9.13;97.46
36242;BME280;22283;42.748;12.732;2023-02-21T22:43:25;98460.41;;;9.18;96.43
36242;BME280;22283;42.748;12.732;2023-02-21T22:48:27;98464.59;;;9.08;98.06
36242;BME280;22283;42.748;12.732;2023-02-21T22:53:27;98453.19;;;9.07;97.94
36242;BME280;22283;42.748;12.732;2023-02-21T22:58:28;98457.81;;;9.04;98.40
36242;BME280;22283;42.748;12.732;2023-02-21T23:03:29;98455.53;;;8.98;99.26
36242;BME280;22283;42.748;12.732;2023-02-21T23:08:32;98444.41;;;9.21;96.10
36242;BME280;22283;42.748;12.732;2023-02-21T23:13:36;98441.56;;;9.24;95.19
36242;BME280;22283;42.748;12.732;2023-02-21T23:18:37;98444.31;;;9.23;95.43
36242;BME280;22283;42.748;12.732;2023-02-21T23:23:38;98448.84;;;9.21;95.64
36242;BME280;22283;42.748;12.732;2023-02-21T23:28:40;98456.28;;;9.28;94.17
36242;BME280;22283;42.748;12.732;2023-02-21T23:33:41;98437.03;;;9.26;94.08
36242;BME280;22283;42.748;12.732;2023-02-21T23:38:41;98445.72;;;9.28;93.92
36242;BME280;22283;42.748;12.732;2023-02-21T23:43:42;98439.13;;;9.21;94.19
36242;BME280;22283;42.748;12.732;2023-02-21T23:48:45;98438.16;;;9.22;94.20
36242;BME280;22283;42.748;12.732;2023-02-21T23:53:46;98436.66;;;9.32;92.72
36242;BME280;22283;42.748;12.732;2023-02-21T23:58:47;98440.63;;;9.25;93.15
